Time;durP1;ratioP1;P1;durP2;ratioP2;P2;SDS_P1;SDS_P2;PMS_P1;PMS_P2;Temp;Humidity;BMP_temperature;BMP_pressure;BME280_temperature;BME280_humidity;BME280_pressure;Samples;Min_cycle;Max_cycle;Signal;HPM_P1;HPM_P2
2020/10/20 00:00:43;;;;;;;2.8;1.5;;;;;;;4.2;90.2627;940.5728;;;;
2020/10/20 00:03:09;;;;;;;1.6;1.3;;;;;;;4.17;89.91699;940.5228;;;;
2020/10/20 00:05:34;;;;;;;2.5;1.5;;;;;;;4.18;89.68262;940.4867;;;;
2020/10/20 00:07:59;;;;;;;1.9;1.2;;;;;;;4.17;89.74805;940.4904;;;;
2020/10/20 00:10:24;;;;;;;1.8;1.3;;;;;;;4.07;90.00879;940.4339;;;;
2020/10/20 00:12:51;;;;;;;2.9;1.4;;;;;;;4.06;90.45703;940.384;;;;
2020/10/20 00:15:23;;;;;;;3.3;1.5;;;;;;;4.07;90.19043;940.3544;;;;
2020/10/20 00:17:48;;;;;;;1.7;1.2;;;;;;;4.13;90.14551;940.4362;;;;
2020/10/20 00:20:15;;;;;;;2.2;1.5;;;;;;;4.14;89.33789;940.3411;;;;
2020/10/20 00:22:40;;;;;;;1.6;1.2;;;;;;;4.06;89.55664;940.2783;;;;
2020/10/20 00:25:10;;;;;;;2.5;1;;;;;;;4.11;89.60156;940.3329;;;;
2020/10/20 00:27:35;;;;;;;2;1.4;;;;;;;4.12;89.16504;940.2523;;;;
2020/10/20 00:30:02;;;;;;;1.8;1;;;;;;;4.21;89.06934;940.2761;;;;
2020/10/20 00:32:30;;;;;;;1.9;1.2;;;;;;;4.22;89.06055;940.2827;;;;
2020/10/20 00:34:56;;;;;;;2.2;1.5;;;;;;;4.1;89.65625;940.1617;;;;
2020/10/20 00:37:20;;;;;;;2.1;1.4;;;;;;;4.07;89.99707;940.1873;;;;
2020/10/20 00:39:45;;;;;;;1.6;1;;;;;;;4.21;89.375;940.2236;;;;
2020/10/20 00:42:10;;;;;;;1.6;1.1;;;;;;;4.16;89.28516;940.1131;;;;
2020/10/20 00:44:35;;;;;;;6.1;1.4;;;;;;;4.11;89.12988;940.1257;;;;
2020/10/20 00:47:00;;;;;;;2.2;1.4;;;;;;;4.03;89.39355;940.055;;;;
2020/10/20 00:49:29;;;;;;;1.5;1.4;;;;;;;4.03;89.41406;940.0745;;;;
2020/10/20 00:51:54;;;;;;;1.2;1.1;;;;;;;3.93;90.26074;939.9953;;;;
2020/10/20 00:54:22;;;;;;;2.5;1.1;;;;;;;4.23;88.70215;940.0105;;;;
2020/10/20 00:56:47;;;;;;;2.1;1;;;;;;;4.23;88.88574;940.0178;;;;
2020/10/20 00:59:12;;;;;;;1.7;1;;;;;;;4.17;88.9834;939.9417;;;;
2020/10/20 01:01:37;;;;;;;1.5;0.7;;;;;;;4.27;88.66699;940.0175;;;;
2020/10/20 01:04:04;;;;;;;2.2;1.2;;;;;;;4.18;88.69238;940.0287;;;;
2020/10/20 01:06:29;;;;;;;1.8;1.1;;;;;;;4.09;89.22559;940.0027;;;;
2020/10/20 01:08:55;;;;;;;2.9;1.3;;;;;;;4.21;88.7998;939.964;;;;
2020/10/20 01:11:20;;;;;;;9.1;1.2;;;;;;;4.2;88.57422;940.0123;;;;
2020/10/20 01:13:48;;;;;;;3.2;1.1;;;;;;;4.25;88.01172;940.0721;;;;
2020/10/20 01:16:17;;;;;;;1.6;1;;;;;;;4.26;88.04785;939.9755;;;;
2020/10/20 01:18:43;;;;;;;1.5;0.9;;;;;;;4.3;87.55957;939.9807;;;;
2020/10/20 01:21:08;;;;;;;2.6;1.3;;;;;;;4.23;87.56738;939.8908;;;;
2020/10/20 01:23:33;;;;;;;1.7;1.1;;;;;;;4.32;87.34961;939.8992;;;;
2020/10/20 01:25:59;;;;;;;1.7;1.3;;;;;;;4.26;87.16992;939.9155;;;;
2020/10/20 01:28:24;;;;;;;1.8;1.1;;;;;;;4.09;87.75195;939.8807;;;;
2020/10/20 01:30:50;;;;;;;2.6;1.2;;;;;;;3.96;88.66992;939.8436;;;;
2020/10/20 01:33:16;;;;;;;1;0.9;;;;;;;4.1;88.18262;939.8717;;;;
2020/10/20 01:35:41;;;;;;;1.1;0.8;;;;;;;4.24;86.90527;939.8873;;;;
2020/10/20 01:38:08;;;;;;;2.7;1.1;;;;;;;4.16;87.88086;939.8478;;;;
2020/10/20 01:40:33;;;;;;;1;0.8;;;;;;;4.17;87.43066;939.8505;;;;
2020/10/20 01:43:00;;;;;;;1.7;0.9;;;;;;;4.31;85.75;939.8613;;;;
2020/10/20 01:45:29;;;;;;;0.9;0.8;;;;;;;4.54;84.21875;939.7803;;;;
2020/10/20 01:47:57;;;;;;;1.8;1;;;;;;;4.48;84.73535;939.7467;;;;
2020/10/20 01:50:23;;;;;;;3.5;1.1;;;;;;;4.57;84.5752;939.7592;;;;
2020/10/20 01:52:48;;;;;;;1.5;1;;;;;;;4.48;84.74707;939.7601;;;;
2020/10/20 01:55:16;;;;;;;1.9;1.2;;;;;;;4.33;86.07813;939.8082;;;;
2020/10/20 01:57:41;;;;;;;1.4;0.9;;;;;;;4.26;86.44824;939.757;;;;
2020/10/20 02:00:12;;;;;;;1.2;1;;;;;;;4.07;87.38574;939.7372;;;;
2020/10/20 02:02:37;;;;;;;3.3;0.9;;;;;;;4.11;87.24023;939.8155;;;;
2020/10/20 02:05:02;;;;;;;1.9;1.2;;;;;;;3.94;87.67676;939.8546;;;;
2020/10/20 02:07:27;;;;;;;2.4;1.1;;;;;;;3.88;87.75586;939.921;;;;
2020/10/20 02:09:55;;;;;;;1.6;1.1;;;;;;;3.78;88.20508;939.8744;;;;
2020/10/20 02:12:20;;;;;;;7.8;1.8;;;;;;;3.78;88.47559;939.7869;;;;
2020/10/20 02:14:47;;;;;;;1.2;0.9;;;;;;;3.69;89.17773;939.7744;;;;
2020/10/20 02:17:12;;;;;;;2.3;1;;;;;;;3.77;89.2041;939.8259;;;;
2020/10/20 02:19:39;;;;;;;2.2;1.3;;;;;;;3.9;88.99414;939.8569;;;;
2020/10/20 02:22:05;;;;;;;3.2;1.4;;;;;;;3.92;88.5498;939.7712;;;;
2020/10/20 02:24:30;;;;;;;1.9;1;;;;;;;3.85;89.0166;939.8038;;;;
2020/10/20 02:26:55;;;;;;;1.4;1;;;;;;;3.75;89.04297;939.785;;;;
2020/10/20 02:29:20;;;;;;;1.7;1;;;;;;;3.72;89.06934;939.7019;;;;
2020/10/20 02:31:47;;;;;;;2.3;1.1;;;;;;;3.81;88.73926;939.712;;;;
2020/10/20 02:34:12;;;;;;;2.9;1.4;;;;;;;3.81;88.60449;939.7221;;;;
2020/10/20 02:36:39;;;;;;;0.8;0.8;;;;;;;3.74;88.86133;939.7249;;;;
2020/10/20 02:39:04;;;;;;;3;1.3;;;;;;;3.79;88.63477;939.7715;;;;
2020/10/20 02:41:31;;;;;;;3.1;1.3;;;;;;;3.77;88.90039;939.7896;;;;
2020/10/20 02:43:56;;;;;;;1.2;1.1;;;;;;;3.8;88.88574;939.6605;;;;
2020/10/20 02:46:24;;;;;;;0.7;0.7;;;;;;;3.65;89.4043;939.6269;;;;
2020/10/20 02:48:49;;;;;;;1.9;1;;;;;;;3.73;89.16211;939.5859;;;;
2020/10/20 02:51:16;;;;;;;5.9;1.3;;;;;;;3.76;89.14551;939.6619;;;;
2020/10/20 02:53:41;;;;;;;1.8;1.1;;;;;;;3.74;89.08398;939.5828;;;;
2020/10/20 02:56:06;;;;;;;1.4;1.1;;;;;;;3.8;88.45801;939.5742;;;;
2020/10/20 02:58:32;;;;;;;15.7;1.6;;;;;;;3.65;89.17969;939.5923;;;;
2020/10/20 03:00:57;;;;;;;2.2;1.2;;;;;;;3.75;88.7959;939.54;;;;
2020/10/20 03:03:25;;;;;;;3.9;1.7;;;;;;;3.66;89.13477;939.4919;;;;
2020/10/20 03:05:50;;;;;;;4.3;1.3;;;;;;;3.65;88.99902;939.4782;;;;
2020/10/20 03:08:16;;;;;;;4.8;1.4;;;;;;;3.63;89.22949;939.4615;;;;
2020/10/20 03:10:41;;;;;;;2.2;1.1;;;;;;;3.55;89.08887;939.4314;;;;
2020/10/20 03:13:08;;;;;;;3.5;1.4;;;;;;;3.51;89.22754;939.4182;;;;
2020/10/20 03:15:41;;;;;;;2.2;1.2;;;;;;;3.52;89.62305;939.4328;;;;
2020/10/20 03:18:08;;;;;;;3.8;1.4;;;;;;;3.43;89.89746;939.4478;;;;
2020/10/20 03:20:37;;;;;;;2.5;1.4;;;;;;;3.32;90.90527;939.4729;;;;
2020/10/20 03:23:02;;;;;;;3.2;1.4;;;;;;;3.28;91.34473;939.5059;;;;
2020/10/20 03:25:27;;;;;;;2.5;1.3;;;;;;;3.31;91.06055;939.5363;;;;
2020/10/20 03:27:52;;;;;;;2.9;1.2;;;;;;;3.33;91.0332;939.5358;;;;
2020/10/20 03:30:20;;;;;;;3.3;1.7;;;;;;;3.42;90.43262;939.5644;;;;
2020/10/20 03:32:46;;;;;;;1.4;0.9;;;;;;;3.3;90.68848;939.5674;;;;
2020/10/20 03:35:16;;;;;;;3.5;1.3;;;;;;;3.55;89.94336;939.5967;;;;
2020/10/20 03:37:41;;;;;;;2.7;1.5;;;;;;;3.55;89.38281;939.5419;;;;
2020/10/20 03:40:14;;;;;;;2.2;1.3;;;;;;;3.36;89.80371;939.4567;;;;
2020/10/20 03:42:39;;;;;;;2.1;1.2;;;;;;;3.47;89.31934;939.5017;;;;
2020/10/20 03:45:04;;;;;;;3;1.4;;;;;;;3.45;89.40723;939.3649;;;;
2020/10/20 03:47:40;;;;;;;2.1;1.4;;;;;;;3.35;89.60938;939.4277;;;;
2020/10/20 03:50:06;;;;;;;4.5;1.8;;;;;;;3.27;90.3125;939.4963;;;;
2020/10/20 03:52:36;;;;;;;1.9;1.3;;;;;;;3.44;89.80957;939.433;;;;
2020/10/20 03:55:03;;;;;;;1.1;1;;;;;;;3.46;89.66504;939.4588;;;;
2020/10/20 03:57:28;;;;;;;3.3;1.4;;;;;;;3.38;89.93066;939.3974;;;;
2020/10/20 03:59:54;;;;;;;4.4;1.2;;;;;;;3.43;89.8623;939.4545;;;;
2020/10/20 04:02:33;;;;;;;3.5;1.2;;;;;;;3.35;89.84473;939.4412;;;;
2020/10/20 04:04:59;;;;;;;1.2;1.1;;;;;;;3.5;89.61914;939.4455;;;;
2020/10/20 04:07:27;;;;;;;8.4;1.9;;;;;;;3.65;88.56152;939.5145;;;;
2020/10/20 04:09:52;;;;;;;4.1;1.7;;;;;;;3.6;88.94531;939.4551;;;;
2020/10/20 04:12:17;;;;;;;2.8;1.5;;;;;;;3.73;88.54297;939.5226;;;;
2020/10/20 04:14:44;;;;;;;2.6;1.6;;;;;;;3.61;88.69824;939.546;;;;
2020/10/20 04:17:12;;;;;;;7.7;3;;;;;;;3.6;88.55176;939.5826;;;;
2020/10/20 04:19:37;;;;;;;3.9;2.4;;;;;;;3.62;88.3418;939.6392;;;;
2020/10/20 04:22:02;;;;;;;2.7;1.5;;;;;;;3.57;88.37402;939.6998;;;;
2020/10/20 04:24:27;;;;;;;5.5;2.1;;;;;;;3.52;88.22949;939.7926;;;;
2020/10/20 04:26:56;;;;;;;2.4;1.4;;;;;;;3.42;88.60254;939.7966;;;;
2020/10/20 04:29:21;;;;;;;1.9;1.5;;;;;;;3.45;88.55176;939.8299;;;;
2020/10/20 04:31:49;;;;;;;3.9;1.7;;;;;;;3.56;87.91309;939.8524;;;;
2020/10/20 04:34:11;;;;;;;4.5;2;;;;;;;3.61;87.94531;939.8931;;;;
2020/10/20 04:36:39;;;;;;;5;2.3;;;;;;;3.49;88.31445;939.9073;;;;
2020/10/20 04:39:08;;;;;;;4.3;1.9;;;;;;;3.55;88.10254;939.8284;;;;
2020/10/20 04:41:33;;;;;;;3.2;1.9;;;;;;;3.48;88.22266;939.8666;;;;
2020/10/20 04:43:58;;;;;;;4.4;1.8;;;;;;;3.67;87.48633;939.9403;;;;
2020/10/20 04:46:23;;;;;;;2.1;1.4;;;;;;;3.58;87.29883;939.9697;;;;
2020/10/20 04:48:48;;;;;;;3.7;1.7;;;;;;;3.56;87.31836;939.9406;;;;
2020/10/20 04:51:15;;;;;;;1.9;1.4;;;;;;;3.6;87.22656;939.8898;;;;
2020/10/20 04:53:40;;;;;;;3;1.6;;;;;;;3.53;87.50195;939.9833;;;;
2020/10/20 04:56:08;;;;;;;3.1;1.7;;;;;;;3.45;87.90039;940.0042;;;;
2020/10/20 04:58:33;;;;;;;3.4;1.8;;;;;;;3.47;87.88379;939.9568;;;;
2020/10/20 05:01:03;;;;;;;2.7;1.7;;;;;;;3.3;88.56641;939.8775;;;;
2020/10/20 05:03:28;;;;;;;3.5;1.7;;;;;;;3.25;89.07129;939.8497;;;;
2020/10/20 05:05:59;;;;;;;5.2;2.3;;;;;;;3.36;88.89258;939.8789;;;;
2020/10/20 05:08:24;;;;;;;2.9;1.7;;;;;;;3.43;88.22266;939.8544;;;;
2020/10/20 05:10:53;;;;;;;5.1;1.9;;;;;;;3.39;88.2373;939.7636;;;;
2020/10/20 05:13:19;;;;;;;2.1;1.3;;;;;;;3.61;86.63086;939.7372;;;;
2020/10/20 05:15:47;;;;;;;6;1.3;;;;;;;3.83;86.21582;939.7805;;;;
2020/10/20 05:18:13;;;;;;;5.5;1.5;;;;;;;4.1;83.43457;939.8281;;;;
2020/10/20 05:20:38;;;;;;;2.9;1.3;;;;;;;4.27;82.29785;939.8661;;;;
2020/10/20 05:23:03;;;;;;;4.6;1.7;;;;;;;4.39;82.66895;939.9254;;;;
2020/10/20 05:25:28;;;;;;;2.8;1.7;;;;;;;4.31;82.45313;939.8653;;;;
2020/10/20 05:27:53;;;;;;;3.6;1.6;;;;;;;4.33;82.40039;939.903;;;;
2020/10/20 05:30:22;;;;;;;6.3;2.2;;;;;;;4.22;83.58105;939.866;;;;
2020/10/20 05:32:50;;;;;;;5.7;2.1;;;;;;;3.88;85.25781;939.8719;;;;
2020/10/20 05:35:15;;;;;;;3.3;1.6;;;;;;;3.81;85.90723;939.8411;;;;
2020/10/20 05:37:40;;;;;;;2.8;1.9;;;;;;;3.63;86.60254;939.8547;;;;
2020/10/20 05:40:07;;;;;;;2.9;1.7;;;;;;;3.58;86.78223;939.895;;;;
2020/10/20 05:42:32;;;;;;;5.7;3;;;;;;;3.64;86.85156;939.9755;;;;
2020/10/20 05:44:58;;;;;;;3;1.6;;;;;;;3.8;85.97461;939.9236;;;;
2020/10/20 05:47:23;;;;;;;4;2;;;;;;;3.91;85.87207;939.9567;;;;
2020/10/20 05:49:48;;;;;;;4;2.1;;;;;;;4.03;84.95313;940.0173;;;;
2020/10/20 05:52:13;;;;;;;3.5;2;;;;;;;4.1;84.30273;939.9733;;;;
2020/10/20 05:54:39;;;;;;;4.7;2.2;;;;;;;4.1;84.09961;940.0073;;;;
2020/10/20 05:57:04;;;;;;;2.2;1.2;;;;;;;4.09;83.86035;939.9919;;;;
2020/10/20 05:59:30;;;;;;;3.4;1.4;;;;;;;4.13;83.61035;939.9634;;;;
2020/10/20 06:01:55;;;;;;;2.7;1.5;;;;;;;4.18;83;939.942;;;;
2020/10/20 06:04:20;;;;;;;2.1;1.2;;;;;;;4.3;82.19238;939.9169;;;;
2020/10/20 06:06:45;;;;;;;2.2;1.6;;;;;;;4.45;81.08301;939.8585;;;;
2020/10/20 06:09:11;;;;;;;1.4;1;;;;;;;4.4;80.97363;939.8625;;;;
2020/10/20 06:11:36;;;;;;;5.9;1.5;;;;;;;4.47;82.14648;939.8278;;;;
2020/10/20 06:14:03;;;;;;;2.1;1.5;;;;;;;4.37;82.94727;939.7452;;;;
2020/10/20 06:16:28;;;;;;;5.4;2;;;;;;;4.45;82.23145;939.8166;;;;
2020/10/20 06:18:54;;;;;;;2.1;1.5;;;;;;;4.47;82.95508;939.8063;;;;
2020/10/20 06:21:19;;;;;;;5.3;2.4;;;;;;;4.48;83.38672;939.8699;;;;
2020/10/20 06:23:46;;;;;;;7.4;2.2;;;;;;;4.52;82.79688;939.7883;;;;
2020/10/20 06:26:11;;;;;;;6.2;3;;;;;;;4.57;82.85254;939.8171;;;;
2020/10/20 06:28:40;;;;;;;3.8;1.1;;;;;;;4.51;82.58105;939.9403;;;;
2020/10/20 06:31:05;;;;;;;2.7;1.8;;;;;;;4.6;82.56543;939.825;;;;
2020/10/20 06:33:30;;;;;;;2;1.6;;;;;;;4.63;82.27734;939.8186;;;;
2020/10/20 06:35:57;;;;;;;3.9;1.4;;;;;;;4.56;82.0293;939.8538;;;;
2020/10/20 06:38:22;;;;;;;3.3;1.7;;;;;;;4.71;82.19141;939.7541;;;;
2020/10/20 06:40:51;;;;;;;4.5;1.5;;;;;;;4.89;81.56152;939.6633;;;;
2020/10/20 06:43:19;;;;;;;2.3;1.4;;;;;;;4.99;80.76758;939.7636;;;;
2020/10/20 06:45:46;;;;;;;6.7;1.7;;;;;;;5.06;81.0293;939.718;;;;
2020/10/20 06:48:12;;;;;;;1.6;1.1;;;;;;;5.1;80.0791;939.5891;;;;
2020/10/20 06:50:37;;;;;;;1.8;1.2;;;;;;;5.24;79.95996;939.6066;;;;
2020/10/20 06:53:02;;;;;;;1.2;1;;;;;;;5.46;79.31348;939.5442;;;;
2020/10/20 06:55:27;;;;;;;1.7;1.1;;;;;;;5.73;76.58691;939.5842;;;;
2020/10/20 06:57:52;;;;;;;3.6;1.7;;;;;;;6.04;76.56055;939.4595;;;;
2020/10/20 07:00:24;;;;;;;2.7;1.5;;;;;;;6.21;75.5625;939.4796;;;;
2020/10/20 07:02:53;;;;;;;3.9;1.7;;;;;;;6.28;75.63184;939.4465;;;;
2020/10/20 07:05:23;;;;;;;5.9;2.9;;;;;;;6.38;75.26563;939.413;;;;
2020/10/20 07:07:50;;;;;;;3.1;1.7;;;;;;;6.59;75.26758;939.4039;;;;
2020/10/20 07:10:16;;;;;;;4.3;1.9;;;;;;;6.68;74.10645;939.4269;;;;
2020/10/20 07:12:41;;;;;;;75.2;32.7;;;;;;;6.78;71.84863;939.3599;;;;
2020/10/20 07:15:15;;;;;;;1.6;1.2;;;;;;;7.1;72.16211;939.3675;;;;
2020/10/20 07:17:40;;;;;;;9.8;4.8;;;;;;;7.21;71.04883;939.3205;;;;
2020/10/20 07:20:16;;;;;;;84;34.8;;;;;;;7.41;70.24219;939.2079;;;;
2020/10/20 07:22:43;;;;;;;14.7;5.7;;;;;;;7.72;69.5459;939.1995;;;;
2020/10/20 07:25:10;;;;;;;21.7;8.1;;;;;;;7.87;67.88086;939.1998;;;;
2020/10/20 07:27:36;;;;;;;27;12.2;;;;;;;8.16;64.95117;939.1212;;;;
2020/10/20 07:30:01;;;;;;;3.9;2;;;;;;;8.17;66.63184;939.0579;;;;
2020/10/20 07:32:26;;;;;;;2;1.3;;;;;;;8.42;65.89844;939.0421;;;;
2020/10/20 07:34:51;;;;;;;7.4;1.5;;;;;;;8.45;66.58594;939.0634;;;;
2020/10/20 07:37:21;;;;;;;5.3;1.5;;;;;;;8.65;64.85254;939.0561;;;;
2020/10/20 07:39:50;;;;;;;33.3;16.4;;;;;;;9.04;63.2959;939.0283;;;;
2020/10/20 07:42:15;;;;;;;1.9;0.9;;;;;;;9.26;62.80469;939.0059;;;;
2020/10/20 07:44:43;;;;;;;6.1;3;;;;;;;9.65;60.16113;938.9422;;;;
2020/10/20 07:47:09;;;;;;;2.5;1.5;;;;;;;9.96;57.10254;939.0285;;;;
2020/10/20 07:49:34;;;;;;;3.7;1.6;;;;;;;11.04;55.64551;938.9968;;;;
2020/10/20 07:51:59;;;;;;;2.4;1.6;;;;;;;11.95;53.70215;938.9933;;;;
2020/10/20 07:54:27;;;;;;;1.8;0.9;;;;;;;12.43;50.10156;938.9292;;;;
2020/10/20 07:56:52;;;;;;;7.4;1.4;;;;;;;13.24;48.74707;938.9305;;;;
2020/10/20 07:59:21;;;;;;;1.7;1;;;;;;;14.18;46.06543;938.9069;;;;
2020/10/20 08:01:45;;;;;;;1.1;0.7;;;;;;;15.06;44.27832;938.8665;;;;
2020/10/20 08:04:16;;;;;;;10.4;1.4;;;;;;;15.39;42.83496;938.841;;;;
2020/10/20 08:06:41;;;;;;;2.5;1.5;;;;;;;15.4;42.37402;938.8466;;;;
2020/10/20 08:09:09;;;;;;;2.5;1.4;;;;;;;16.51;41.3125;938.7752;;;;
2020/10/20 08:11:34;;;;;;;1.9;1.1;;;;;;;16.17;40.29688;938.8406;;;;
2020/10/20 08:14:02;;;;;;;13.8;6.4;;;;;;;16.28;42.30859;938.7569;;;;
2020/10/20 08:16:26;;;;;;;1.6;0.5;;;;;;;16.51;39.56348;938.748;;;;
2020/10/20 08:18:52;;;;;;;2.5;0.9;;;;;;;16.86;39.12012;938.7169;;;;
2020/10/20 08:21:17;;;;;;;3.2;1.6;;;;;;;16.99;38.86621;938.7527;;;;
2020/10/20 08:23:44;;;;;;;1.3;1.1;;;;;;;17.77;37.66895;938.77;;;;
2020/10/20 08:26:08;;;;;;;10.1;1.9;;;;;;;18.77;34.99805;938.7435;;;;
2020/10/20 08:28:33;;;;;;;4.7;2.8;;;;;;;18.66;33.70996;938.729;;;;
2020/10/20 08:30:58;;;;;;;0.6;0.4;;;;;;;18.17;34.625;938.6842;;;;
2020/10/20 08:33:26;;;;;;;0.9;0.2;;;;;;;17.94;34.42188;938.6746;;;;
2020/10/20 08:35:51;;;;;;;4;2.1;;;;;;;16.75;35.65918;938.6464;;;;
2020/10/20 08:38:22;;;;;;;1.8;0.9;;;;;;;16.13;37.8877;938.6417;;;;
2020/10/20 08:40:51;;;;;;;2.4;1.3;;;;;;;16.86;37.60352;938.6307;;;;
2020/10/20 08:43:16;;;;;;;2.6;1.7;;;;;;;16.47;36.78223;938.5893;;;;
2020/10/20 08:45:47;;;;;;;2.3;1.7;;;;;;;16.42;36.41992;938.5979;;;;
2020/10/20 08:48:12;;;;;;;1.7;0.7;;;;;;;16.36;37.25977;938.6202;;;;
2020/10/20 08:50:45;;;;;;;0.8;0.6;;;;;;;16.49;38.98438;938.6895;;;;
2020/10/20 08:53:13;;;;;;;0.3;0.2;;;;;;;16.53;40.49219;938.6978;;;;
2020/10/20 08:55:41;;;;;;;0.4;0.4;;;;;;;16.65;41.37109;938.6982;;;;
2020/10/20 08:58:03;;;;;;;0.3;0.3;;;;;;;16.68;40.90039;938.6064;;;;
2020/10/20 09:00:32;;;;;;;0.2;0.2;;;;;;;16.64;40.66406;938.6365;;;;
2020/10/20 09:02:57;;;;;;;1.3;0.7;;;;;;;16.55;39.11621;938.5553;;;;
2020/10/20 09:05:22;;;;;;;0.3;0.3;;;;;;;16.22;40.60156;938.5773;;;;
2020/10/20 09:07:49;;;;;;;1.7;0.9;;;;;;;15.96;40.49707;938.5494;;;;
2020/10/20 09:10:14;;;;;;;0.4;0.3;;;;;;;15.97;41.1123;938.5164;;;;
2020/10/20 09:12:41;;;;;;;0.8;0.3;;;;;;;15.65;40.45703;938.4921;;;;
2020/10/20 09:15:08;;;;;;;0.3;0.3;;;;;;;15.57;39.84863;938.4481;;;;
2020/10/20 09:17:33;;;;;;;0.4;0.3;;;;;;;15.33;39.59668;938.4203;;;;
2020/10/20 09:19:59;;;;;;;0.6;0.4;;;;;;;15.51;40.24805;938.545;;;;
2020/10/20 09:22:25;;;;;;;0.1;0.1;;;;;;;15.73;39.93262;938.4472;;;;
2020/10/20 09:24:50;;;;;;;0.4;0.3;;;;;;;15.71;41.13281;938.4521;;;;
2020/10/20 09:27:16;;;;;;;0.3;0.3;;;;;;;15.89;40.14355;938.5003;;;;
2020/10/20 09:29:41;;;;;;;0.3;0.3;;;;;;;15.54;40.2627;938.4692;;;;
2020/10/20 09:32:06;;;;;;;0.1;0.1;;;;;;;15.56;40.1377;938.4739;;;;
2020/10/20 09:34:31;;;;;;;1;0.4;;;;;;;15.86;39.88672;938.459;;;;
2020/10/20 09:36:56;;;;;;;0.3;0.3;;;;;;;15.87;39.80664;938.4604;;;;
2020/10/20 09:39:24;;;;;;;1;0.6;;;;;;;16.18;37.89258;938.4966;;;;
2020/10/20 09:41:49;;;;;;;2.5;0.3;;;;;;;16.45;36.80371;938.4972;;;;
2020/10/20 09:44:14;;;;;;;0.6;0.3;;;;;;;16.25;38.07227;938.5073;;;;
2020/10/20 09:46:39;;;;;;;0.9;0.4;;;;;;;16.47;36.67871;938.4342;;;;
2020/10/20 09:49:04;;;;;;;0.5;0.3;;;;;;;16.72;37.38281;938.3525;;;;
2020/10/20 09:51:31;;;;;;;0.4;0.3;;;;;;;17.15;37.62793;938.3725;;;;
2020/10/20 09:53:56;;;;;;;1.6;0.5;;;;;;;17.23;39.11914;938.3829;;;;
2020/10/20 09:56:22;;;;;;;6.4;0.7;;;;;;;17.54;37.39453;938.361;;;;
2020/10/20 09:58:47;;;;;;;0.2;0.2;;;;;;;17.58;37.08496;938.3893;;;;
2020/10/20 10:01:13;;;;;;;0.4;0.4;;;;;;;17.71;35.69141;938.2855;;;;
2020/10/20 10:03:39;;;;;;;1;0.6;;;;;;;17.94;35.24609;938.382;;;;
2020/10/20 10:06:05;;;;;;;0.9;0.5;;;;;;;17.68;33.69336;938.3383;;;;
2020/10/20 10:08:30;;;;;;;4.6;0.3;;;;;;;17.79;34.35156;938.3733;;;;
2020/10/20 10:10:57;;;;;;;0.7;0.3;;;;;;;18.03;34.75293;938.3478;;;;
2020/10/20 10:13:22;;;;;;;0.4;0.4;;;;;;;18.25;34.6084;938.3019;;;;
2020/10/20 10:15:51;;;;;;;0.2;0.2;;;;;;;18.49;34.33594;938.3093;;;;
2020/10/20 10:18:16;;;;;;;0.5;0.5;;;;;;;18.9;35.14844;938.2842;;;;
2020/10/20 10:20:41;;;;;;;0.2;0.2;;;;;;;18.94;32.625;938.2777;;;;
2020/10/20 10:23:06;;;;;;;0.2;0.2;;;;;;;19.15;33.33984;938.3385;;;;
2020/10/20 10:25:31;;;;;;;0.9;0.4;;;;;;;19.39;35.15234;938.3477;;;;
2020/10/20 10:27:57;;;;;;;0.3;0.2;;;;;;;19.81;35.25488;938.3299;;;;
2020/10/20 10:30:26;;;;;;;0.5;0.4;;;;;;;19.82;29.99707;938.3234;;;;
2020/10/20 10:32:52;;;;;;;0.4;0.4;;;;;;;19.66;32.21191;938.3226;;;;
2020/10/20 10:35:20;;;;;;;0.4;0.4;;;;;;;19.53;33.03027;938.3228;;;;
2020/10/20 10:37:46;;;;;;;0.4;0.3;;;;;;;19.77;30.17969;938.2841;;;;
2020/10/20 10:40:12;;;;;;;0.2;0.2;;;;;;;19.88;30.72363;938.3083;;;;
2020/10/20 10:42:37;;;;;;;0.5;0.3;;;;;;;19.9;33.87402;938.3344;;;;
2020/10/20 10:45:03;;;;;;;0.3;0.3;;;;;;;19.96;32.17578;938.29;;;;
2020/10/20 10:47:28;;;;;;;2;0.5;;;;;;;19.86;35.81836;938.282;;;;
2020/10/20 10:49:53;;;;;;;0.4;0.3;;;;;;;19.71;36.87988;938.28;;;;
2020/10/20 10:52:19;;;;;;;0.7;0.5;;;;;;;19.67;38.08984;938.31;;;;
2020/10/20 10:54:44;;;;;;;0.3;0.3;;;;;;;19.65;39.60352;938.2904;;;;
2020/10/20 10:57:09;;;;;;;1;0.5;;;;;;;19.52;39.81348;938.2833;;;;
2020/10/20 10:59:34;;;;;;;1;0.6;;;;;;;19.5;39.85742;938.2805;;;;
2020/10/20 11:02:00;;;;;;;0.5;0.4;;;;;;;19.63;38.59863;938.2134;;;;
2020/10/20 11:04:25;;;;;;;3;0.5;;;;;;;19.67;38.8125;938.2665;;;;
2020/10/20 11:06:51;;;;;;;0.8;0.4;;;;;;;19.68;39.40723;938.2452;;;;
2020/10/20 11:09:20;;;;;;;1.6;0.3;;;;;;;19.58;38.9668;938.3258;;;;
2020/10/20 11:11:47;;;;;;;0.4;0.2;;;;;;;19.65;39.20605;938.3098;;;;
2020/10/20 11:14:14;;;;;;;0.4;0.2;;;;;;;19.89;40.83789;938.3555;;;;
2020/10/20 11:16:39;;;;;;;0.8;0.3;;;;;;;20.3;39.64941;938.2997;;;;
2020/10/20 11:19:06;;;;;;;0.5;0.5;;;;;;;20.56;38.18848;938.2769;;;;
2020/10/20 11:21:31;;;;;;;0.5;0.5;;;;;;;20.76;38.13672;938.3293;;;;
2020/10/20 11:24:00;;;;;;;0.7;0.6;;;;;;;20.55;38.22266;938.2708;;;;
2020/10/20 11:26:24;;;;;;;0.5;0.4;;;;;;;20.44;38.40039;938.2698;;;;
2020/10/20 11:28:50;;;;;;;0.5;0.4;;;;;;;20.77;37.14355;938.1972;;;;
2020/10/20 11:31:18;;;;;;;0.8;0.5;;;;;;;21.48;36.26758;938.2087;;;;
2020/10/20 11:33:44;;;;;;;0.5;0.4;;;;;;;22.08;35.54199;938.2319;;;;
2020/10/20 11:36:09;;;;;;;0.8;0.3;;;;;;;22.75;33.64648;938.1744;;;;
2020/10/20 11:38:34;;;;;;;1.2;0.6;;;;;;;23.26;34.4502;938.1713;;;;
2020/10/20 11:41:05;;;;;;;0.5;0.4;;;;;;;23.91;33.22852;938.0773;;;;
2020/10/20 11:43:33;;;;;;;0.4;0.3;;;;;;;24.9;30.71875;937.9969;;;;
2020/10/20 11:45:56;;;;;;;0.5;0.4;;;;;;;25.54;29.95898;937.9375;;;;
2020/10/20 11:48:28;;;;;;;0.5;0.4;;;;;;;25.84;28.53711;937.9381;;;;
2020/10/20 11:50:53;;;;;;;1.7;0.5;;;;;;;25.81;29.43359;937.9;;;;
2020/10/20 11:53:22;;;;;;;4.1;0.7;;;;;;;25.57;28.76855;937.8281;;;;
2020/10/20 11:55:46;;;;;;;1.1;0.8;;;;;;;25.12;28.03125;937.7767;;;;
2020/10/20 11:58:13;;;;;;;0.4;0.3;;;;;;;24.72;29.09082;937.7037;;;;
2020/10/20 12:00:46;;;;;;;0.9;0.6;;;;;;;24.88;28.40527;937.6197;;;;
2020/10/20 12:03:12;;;;;;;0.4;0.4;;;;;;;24.89;27.40332;937.6217;;;;
2020/10/20 12:05:38;;;;;;;0.2;0.2;;;;;;;24.81;29.40332;937.6359;;;;
2020/10/20 12:08:03;;;;;;;1;0.6;;;;;;;25.01;27.5166;937.5995;;;;
2020/10/20 12:10:28;;;;;;;0.5;0.4;;;;;;;24.53;27.32129;937.599;;;;
2020/10/20 12:12:54;;;;;;;0.7;0.3;;;;;;;24.6;26.99609;937.4403;;;;
2020/10/20 12:15:19;;;;;;;0.9;0.5;;;;;;;24.66;26.49316;937.4443;;;;
2020/10/20 12:17:44;;;;;;;1;0.4;;;;;;;24.91;27.2627;937.4311;;;;
2020/10/20 12:20:14;;;;;;;1;0.8;;;;;;;24.16;26.74609;937.293;;;;
2020/10/20 14:18:03;;;;;;;2.7;1.2;;;;;;;21.57;42.11621;935.4434;;;;
2020/10/20 14:20:29;;;;;;;1.2;0.9;;;;;;;20.96;45.18066;935.4839;;;;
2020/10/20 14:22:54;;;;;;;1.7;1;;;;;;;20.48;46.60449;935.4202;;;;
2020/10/20 14:25:24;;;;;;;2.8;0.7;;;;;;;20.54;43.12891;935.3998;;;;
2020/10/20 14:27:52;;;;;;;1;0.5;;;;;;;20.47;42.1875;935.4717;;;;
2020/10/20 14:30:29;;;;;;;1.2;0.4;;;;;;;20.4;42.06445;935.5258;;;;
2020/10/20 14:32:54;;;;;;;1;0.8;;;;;;;20.41;41.87891;935.5784;;;;
2020/10/20 14:35:19;;;;;;;1.6;0.5;;;;;;;20.5;42.0498;935.6705;;;;
2020/10/20 14:37:46;;;;;;;1.3;0.4;;;;;;;20.47;40.84375;935.6917;;;;
2020/10/20 14:40:12;;;;;;;0.4;0.4;;;;;;;20.46;40.43457;935.7025;;;;
2020/10/20 14:42:37;;;;;;;0.8;0.5;;;;;;;20.69;39.71973;935.687;;;;
2020/10/20 14:45:01;;;;;;;1.3;0.7;;;;;;;20.89;38.9668;935.6635;;;;
2020/10/20 14:47:28;;;;;;;1.1;0.6;;;;;;;20.88;38.07617;935.6671;;;;
2020/10/20 14:49:53;;;;;;;0.4;0.4;;;;;;;20.6;38.39063;935.6511;;;;
2020/10/20 14:52:19;;;;;;;1.3;0.7;;;;;;;19.98;39.25879;935.7167;;;;
2020/10/20 14:54:44;;;;;;;0.8;0.6;;;;;;;19.74;39.82129;935.7614;;;;
2020/10/20 14:57:11;;;;;;;0.7;0.7;;;;;;;18.02;42.88281;935.838;;;;
2020/10/20 14:59:36;;;;;;;1.6;0.7;;;;;;;18.2;42.94727;935.8958;;;;
2020/10/20 15:02:02;;;;;;;1.1;0.5;;;;;;;18.17;42.27051;935.9715;;;;
2020/10/20 15:04:27;;;;;;;4.6;0.4;;;;;;;18.13;41.77832;935.9619;;;;
2020/10/20 15:06:52;;;;;;;0.4;0.4;;;;;;;18.26;41.68555;936.0568;;;;
2020/10/20 15:09:17;;;;;;;1.7;0.8;;;;;;;17.99;42.76465;936.1099;;;;
2020/10/20 15:11:44;;;;;;;0.8;0.6;;;;;;;17.75;43.4834;936.2205;;;;
2020/10/20 15:14:09;;;;;;;1.2;0.5;;;;;;;17.81;43.53613;936.2867;;;;
2020/10/20 15:16:34;;;;;;;4.2;0.5;;;;;;;18.06;43.56055;936.1868;;;;
2020/10/20 15:19:01;;;;;;;0.6;0.4;;;;;;;18.12;43.16016;936.3733;;;;
2020/10/20 15:21:26;;;;;;;0.8;0.5;;;;;;;17.55;44.2168;936.4551;;;;
2020/10/20 15:23:53;;;;;;;1.2;0.6;;;;;;;17.29;45.72266;936.5622;;;;
2020/10/20 15:26:18;;;;;;;1;0.5;;;;;;;17.05;45.35059;936.5776;;;;
2020/10/20 15:28:43;;;;;;;1.4;0.5;;;;;;;16.97;45.6543;936.6454;;;;
2020/10/20 15:31:08;;;;;;;1.4;1.3;;;;;;;16.45;46.42188;936.675;;;;
2020/10/20 15:33:35;;;;;;;4;0.8;;;;;;;16.23;47.72949;936.6564;;;;
2020/10/20 15:36:05;;;;;;;1.8;1.2;;;;;;;16.04;47.97461;936.6902;;;;
2020/10/20 15:38:32;;;;;;;0.6;0.5;;;;;;;15.81;48.80371;936.6702;;;;
2020/10/20 15:41:03;;;;;;;2.6;0.4;;;;;;;15.77;48.01465;936.7559;;;;
2020/10/20 15:43:31;;;;;;;0.7;0.6;;;;;;;15.76;48.5332;936.7656;;;;
2020/10/20 15:45:57;;;;;;;2.8;0.7;;;;;;;15.26;49.5166;936.8052;;;;
2020/10/20 15:48:26;;;;;;;0.5;0.4;;;;;;;15.3;49.24414;936.9034;;;;
2020/10/20 15:50:55;;;;;;;0.7;0.2;;;;;;;15.2;49.76367;936.9034;;;;
2020/10/20 15:53:20;;;;;;;0.7;0.6;;;;;;;15.11;49.97266;936.9204;;;;
2020/10/20 15:55:47;;;;;;;1.2;0.6;;;;;;;15.24;49.27246;936.9594;;;;
2020/10/20 15:58:12;;;;;;;2.2;1.2;;;;;;;15.47;48.89355;937.0013;;;;
2020/10/20 16:00:41;;;;;;;1;0.8;;;;;;;15.39;49.21973;937.0027;;;;
2020/10/20 16:03:06;;;;;;;1.7;0.8;;;;;;;15.28;49.87598;937.032;;;;
2020/10/20 16:05:33;;;;;;;4.2;2.4;;;;;;;15.16;51.09766;937.0964;;;;
2020/10/20 16:07:59;;;;;;;1.2;0.5;;;;;;;15.19;50.91699;937.1265;;;;
2020/10/20 16:10:24;;;;;;;3.3;1.3;;;;;;;15.21;51;937.1135;;;;
2020/10/20 16:12:54;;;;;;;2;1.1;;;;;;;15.12;51.82031;937.1208;;;;
2020/10/20 16:15:22;;;;;;;4.4;2.2;;;;;;;15.03;51.41797;937.2003;;;;
2020/10/20 16:17:47;;;;;;;1.7;0.7;;;;;;;14.91;51.62207;937.1851;;;;
2020/10/20 16:20:19;;;;;;;2.7;0.7;;;;;;;14.86;51.92773;937.0916;;;;
2020/10/20 16:22:47;;;;;;;1.3;0.5;;;;;;;14.88;52.86328;937.1316;;;;